sensor_id;sensor_type;location;lat;lon;timestamp;P1;durP1;ratioP1;P2;durP2;ratioP2
31920;SDS011;66485;52.128;4.436;2023-08-12T00:00:49;2.42;;;1.20;;
31920;SDS011;66485;52.128;4.436;2023-08-12T00:03:15;1.33;;;0.90;;
31920;SDS011;66485;52.128;4.436;2023-08-12T00:05:41;2.67;;;1.10;;
31920;SDS011;66485;52.128;4.436;2023-08-12T00:08:08;2.42;;;1.23;;
31920;SDS011;66485;52.128;4.436;2023-08-12T00:10:33;1.15;;;0.70;;
31920;SDS011;66485;52.128;4.436;2023-08-12T00:12:58;1.85;;;0.98;;
31920;SDS011;66485;52.128;4.436;2023-08-12T00:15:24;2.13;;;1.27;;
31920;SDS011;66485;52.128;4.436;2023-08-12T00:17:49;2.00;;;1.08;;
31920;SDS011;66485;52.128;4.436;2023-08-12T00:20:15;2.10;;;1.13;;
31920;SDS011;66485;52.128;4.436;2023-08-12T00:22:41;1.45;;;0.88;;
31920;SDS011;66485;52.128;4.436;2023-08-12T00:25:06;2.00;;;1.08;;
31920;SDS011;66485;52.128;4.436;2023-08-12T00:27:32;2.17;;;0.82;;
31920;SDS011;66485;52.128;4.436;2023-08-12T00:29:57;2.00;;;1.05;;
31920;SDS011;66485;52.128;4.436;2023-08-12T00:32:23;1.77;;;0.90;;
31920;SDS011;66485;52.128;4.436;2023-08-12T00:34:48;1.65;;;0.95;;
31920;SDS011;66485;52.128;4.436;2023-08-12T00:37:13;1.70;;;1.00;;
31920;SDS011;66485;52.128;4.436;2023-08-12T00:39:39;3.00;;;1.13;;
31920;SDS011;66485;52.128;4.436;2023-08-12T00:42:04;2.08;;;1.00;;
31920;SDS011;66485;52.128;4.436;2023-08-12T00:44:30;1.42;;;0.90;;
31920;SDS011;66485;52.128;4.436;2023-08-12T00:46:55;2.05;;;1.20;;
31920;SDS011;66485;52.128;4.436;2023-08-12T00:49:22;1.92;;;1.00;;
31920;SDS011;66485;52.128;4.436;2023-08-12T00:51:48;2.08;;;0.80;;
31920;SDS011;66485;52.128;4.436;2023-08-12T00:54:14;1.92;;;1.10;;
31920;SDS011;66485;52.128;4.436;2023-08-12T00:56:41;1.58;;;0.95;;
31920;SDS011;66485;52.128;4.436;2023-08-12T00:59:08;2.72;;;1.17;;
31920;SDS011;66485;52.128;4.436;2023-08-12T01:01:34;1.75;;;0.90;;
31920;SDS011;66485;52.128;4.436;2023-08-12T01:04:00;2.28;;;1.27;;
31920;SDS011;66485;52.128;4.436;2023-08-12T01:06:26;1.65;;;0.90;;
31920;SDS011;66485;52.128;4.436;2023-08-12T01:08:51;2.20;;;1.08;;
31920;SDS011;66485;52.128;4.436;2023-08-12T01:11:25;2.03;;;0.90;;
31920;SDS011;66485;52.128;4.436;2023-08-12T01:14:12;2.13;;;1.08;;
31920;SDS011;66485;52.128;4.436;2023-08-12T01:16:44;2.20;;;1.08;;
31920;SDS011;66485;52.128;4.436;2023-08-12T01:19:19;2.38;;;0.90;;
31920;SDS011;66485;52.128;4.436;2023-08-12T01:21:50;1.88;;;0.95;;
31920;SDS011;66485;52.128;4.436;2023-08-12T01:24:19;2.45;;;1.00;;
31920;SDS011;66485;52.128;4.436;2023-08-12T01:26:46;2.10;;;0.80;;
31920;SDS011;66485;52.128;4.436;2023-08-12T01:29:12;2.60;;;1.23;;
31920;SDS011;66485;52.128;4.436;2023-08-12T01:31:40;1.85;;;1.00;;
31920;SDS011;66485;52.128;4.436;2023-08-12T01:36:37;1.45;;;1.00;;
31920;SDS011;66485;52.128;4.436;2023-08-12T01:39:07;2.50;;;1.17;;
31920;SDS011;66485;52.128;4.436;2023-08-12T01:41:34;1.48;;;1.00;;
31920;SDS011;66485;52.128;4.436;2023-08-12T01:44:01;3.80;;;1.00;;
31920;SDS011;66485;52.128;4.436;2023-08-12T01:46:28;1.67;;;1.10;;
31920;SDS011;66485;52.128;4.436;2023-08-12T01:48:53;2.42;;;1.00;;
31920;SDS011;66485;52.128;4.436;2023-08-12T01:51:21;1.42;;;0.90;;
31920;SDS011;66485;52.128;4.436;2023-08-12T01:53:46;1.90;;;1.00;;
31920;SDS011;66485;52.128;4.436;2023-08-12T01:56:11;1.77;;;1.08;;
31920;SDS011;66485;52.128;4.436;2023-08-12T01:58:37;2.42;;;1.10;;
31920;SDS011;66485;52.128;4.436;2023-08-12T02:01:02;1.75;;;0.98;;
31920;SDS011;66485;52.128;4.436;2023-08-12T02:03:27;1.27;;;0.90;;
31920;SDS011;66485;52.128;4.436;2023-08-12T02:05:53;4.40;;;1.20;;
31920;SDS011;66485;52.128;4.436;2023-08-12T02:08:18;1.58;;;0.93;;
31920;SDS011;66485;52.128;4.436;2023-08-12T02:10:43;2.35;;;1.10;;
31920;SDS011;66485;52.128;4.436;2023-08-12T02:13:09;1.55;;;0.95;;
31920;SDS011;66485;52.128;4.436;2023-08-12T02:15:34;2.72;;;1.10;;
31920;SDS011;66485;52.128;4.436;2023-08-12T02:17:59;2.20;;;1.13;;
31920;SDS011;66485;52.128;4.436;2023-08-12T02:20:25;1.83;;;1.15;;
31920;SDS011;66485;52.128;4.436;2023-08-12T02:22:50;1.65;;;0.80;;
31920;SDS011;66485;52.128;4.436;2023-08-12T02:25:16;3.75;;;1.15;;
31920;SDS011;66485;52.128;4.436;2023-08-12T02:27:41;1.88;;;1.10;;
31920;SDS011;66485;52.128;4.436;2023-08-12T02:30:06;2.95;;;1.02;;
31920;SDS011;66485;52.128;4.436;2023-08-12T02:32:32;1.70;;;0.95;;
31920;SDS011;66485;52.128;4.436;2023-08-12T02:34:57;2.60;;;1.08;;
31920;SDS011;66485;52.128;4.436;2023-08-12T02:37:23;1.90;;;1.02;;
31920;SDS011;66485;52.128;4.436;2023-08-12T02:39:48;3.03;;;1.27;;
31920;SDS011;66485;52.128;4.436;2023-08-12T02:42:13;2.03;;;1.00;;
31920;SDS011;66485;52.128;4.436;2023-08-12T02:44:39;2.13;;;1.00;;
31920;SDS011;66485;52.128;4.436;2023-08-12T02:47:04;1.45;;;0.98;;
31920;SDS011;66485;52.128;4.436;2023-08-12T02:49:29;2.30;;;1.00;;
31920;SDS011;66485;52.128;4.436;2023-08-12T02:51:55;2.33;;;1.17;;
31920;SDS011;66485;52.128;4.436;2023-08-12T02:54:20;1.45;;;0.98;;
31920;SDS011;66485;52.128;4.436;2023-08-12T02:56:46;2.85;;;1.10;;
31920;SDS011;66485;52.128;4.436;2023-08-12T02:59:11;1.92;;;1.10;;
31920;SDS011;66485;52.128;4.436;2023-08-12T03:01:36;1.52;;;1.15;;
31920;SDS011;66485;52.128;4.436;2023-08-12T03:04:02;1.70;;;1.05;;
31920;SDS011;66485;52.128;4.436;2023-08-12T03:06:27;1.65;;;1.10;;
31920;SDS011;66485;52.128;4.436;2023-08-12T03:08:53;1.35;;;0.88;;
31920;SDS011;66485;52.128;4.436;2023-08-12T03:11:18;1.80;;;1.08;;
31920;SDS011;66485;52.128;4.436;2023-08-12T03:13:44;2.20;;;1.10;;
31920;SDS011;66485;52.128;4.436;2023-08-12T03:16:12;1.48;;;0.95;;
31920;SDS011;66485;52.128;4.436;2023-08-12T03:18:39;1.42;;;0.90;;
31920;SDS011;66485;52.128;4.436;2023-08-12T03:21:07;1.50;;;1.00;;
31920;SDS011;66485;52.128;4.436;2023-08-12T03:23:37;1.23;;;0.80;;
31920;SDS011;66485;52.128;4.436;2023-08-12T03:26:03;2.58;;;1.00;;
31920;SDS011;66485;52.128;4.436;2023-08-12T03:28:28;2.38;;;0.88;;
31920;SDS011;66485;52.128;4.436;2023-08-12T03:30:54;1.60;;;0.98;;
31920;SDS011;66485;52.128;4.436;2023-08-12T03:33:19;1.58;;;0.90;;
31920;SDS011;66485;52.128;4.436;2023-08-12T03:35:45;1.63;;;0.93;;
31920;SDS011;66485;52.128;4.436;2023-08-12T03:38:11;1.30;;;0.93;;
31920;SDS011;66485;52.128;4.436;2023-08-12T03:40:38;1.92;;;1.20;;
31920;SDS011;66485;52.128;4.436;2023-08-12T03:43:03;2.67;;;0.95;;
31920;SDS011;66485;52.128;4.436;2023-08-12T03:45:29;2.50;;;1.27;;
31920;SDS011;66485;52.128;4.436;2023-08-12T03:47:54;1.52;;;1.02;;
31920;SDS011;66485;52.128;4.436;2023-08-12T03:50:20;1.60;;;1.00;;
31920;SDS011;66485;52.128;4.436;2023-08-12T03:52:45;1.52;;;0.90;;
31920;SDS011;66485;52.128;4.436;2023-08-12T03:55:10;1.58;;;1.08;;
31920;SDS011;66485;52.128;4.436;2023-08-12T03:57:36;2.15;;;1.10;;
31920;SDS011;66485;52.128;4.436;2023-08-12T04:00:01;2.15;;;1.10;;
31920;SDS011;66485;52.128;4.436;2023-08-12T04:02:27;1.80;;;1.10;;
31920;SDS011;66485;52.128;4.436;2023-08-12T04:04:53;1.40;;;0.90;;
31920;SDS011;66485;52.128;4.436;2023-08-12T04:07:18;1.60;;;1.08;;
31920;SDS011;66485;52.128;4.436;2023-08-12T04:09:43;1.85;;;1.10;;
31920;SDS011;66485;52.128;4.436;2023-08-12T04:12:09;2.60;;;1.00;;
31920;SDS011;66485;52.128;4.436;2023-08-12T04:14:34;1.73;;;1.10;;
31920;SDS011;66485;52.128;4.436;2023-08-12T04:16:59;2.33;;;1.42;;
31920;SDS011;66485;52.128;4.436;2023-08-12T04:19:25;2.63;;;1.25;;
31920;SDS011;66485;52.128;4.436;2023-08-12T04:21:50;1.60;;;1.00;;
31920;SDS011;66485;52.128;4.436;2023-08-12T04:24:15;2.25;;;1.10;;
31920;SDS011;66485;52.128;4.436;2023-08-12T04:26:41;2.88;;;1.20;;
31920;SDS011;66485;52.128;4.436;2023-08-12T04:29:06;2.72;;;1.20;;
31920;SDS011;66485;52.128;4.436;2023-08-12T04:31:32;1.40;;;1.10;;
31920;SDS011;66485;52.128;4.436;2023-08-12T04:33:57;2.10;;;1.17;;
31920;SDS011;66485;52.128;4.436;2023-08-12T04:36:23;2.15;;;1.13;;
31920;SDS011;66485;52.128;4.436;2023-08-12T04:38:48;2.95;;;1.45;;
31920;SDS011;66485;52.128;4.436;2023-08-12T04:41:13;1.95;;;1.17;;
31920;SDS011;66485;52.128;4.436;2023-08-12T04:43:38;1.43;;;1.00;;
31920;SDS011;66485;52.128;4.436;2023-08-12T04:46:04;1.45;;;1.10;;
31920;SDS011;66485;52.128;4.436;2023-08-12T04:48:30;1.48;;;0.88;;
31920;SDS011;66485;52.128;4.436;2023-08-12T04:50:56;2.17;;;1.20;;
31920;SDS011;66485;52.128;4.436;2023-08-12T04:53:25;2.60;;;1.20;;
31920;SDS011;66485;52.128;4.436;2023-08-12T04:55:50;1.80;;;0.93;;
31920;SDS011;66485;52.128;4.436;2023-08-12T04:58:16;2.75;;;1.20;;
31920;SDS011;66485;52.128;4.436;2023-08-12T05:00:42;3.03;;;1.38;;
31920;SDS011;66485;52.128;4.436;2023-08-12T05:03:07;1.70;;;1.00;;
31920;SDS011;66485;52.128;4.436;2023-08-12T05:05:32;2.35;;;1.20;;
31920;SDS011;66485;52.128;4.436;2023-08-12T05:07:58;2.63;;;1.15;;
31920;SDS011;66485;52.128;4.436;2023-08-12T05:10:23;1.77;;;1.23;;
31920;SDS011;66485;52.128;4.436;2023-08-12T05:12:48;1.70;;;1.00;;
31920;SDS011;66485;52.128;4.436;2023-08-12T05:15:15;2.38;;;0.95;;
31920;SDS011;66485;52.128;4.436;2023-08-12T05:17:40;3.10;;;1.40;;
31920;SDS011;66485;52.128;4.436;2023-08-12T05:20:06;2.47;;;1.10;;
31920;SDS011;66485;52.128;4.436;2023-08-12T05:22:32;2.00;;;1.10;;
31920;SDS011;66485;52.128;4.436;2023-08-12T05:24:57;2.40;;;1.50;;
31920;SDS011;66485;52.128;4.436;2023-08-12T05:27:22;1.83;;;1.20;;
31920;SDS011;66485;52.128;4.436;2023-08-12T05:29:48;1.98;;;1.25;;
31920;SDS011;66485;52.128;4.436;2023-08-12T05:32:13;1.73;;;1.20;;
31920;SDS011;66485;52.128;4.436;2023-08-12T05:34:38;2.55;;;1.00;;
31920;SDS011;66485;52.128;4.436;2023-08-12T05:37:04;1.50;;;1.00;;
31920;SDS011;66485;52.128;4.436;2023-08-12T05:39:29;1.43;;;1.00;;
31920;SDS011;66485;52.128;4.436;2023-08-12T05:41:54;2.30;;;1.05;;
31920;SDS011;66485;52.128;4.436;2023-08-12T05:44:20;1.73;;;1.00;;
31920;SDS011;66485;52.128;4.436;2023-08-12T05:46:45;2.75;;;1.10;;
31920;SDS011;66485;52.128;4.436;2023-08-12T05:49:11;2.08;;;1.20;;
31920;SDS011;66485;52.128;4.436;2023-08-12T05:51:36;2.25;;;1.30;;
31920;SDS011;66485;52.128;4.436;2023-08-12T05:54:03;2.33;;;1.40;;
31920;SDS011;66485;52.128;4.436;2023-08-12T05:56:28;3.50;;;1.40;;
31920;SDS011;66485;52.128;4.436;2023-08-12T05:58:54;1.27;;;0.98;;
31920;SDS011;66485;52.128;4.436;2023-08-12T06:01:19;3.38;;;1.25;;
31920;SDS011;66485;52.128;4.436;2023-08-12T06:03:44;2.15;;;1.23;;
31920;SDS011;66485;52.128;4.436;2023-08-12T06:06:10;1.67;;;1.20;;
31920;SDS011;66485;52.128;4.436;2023-08-12T06:08:35;2.85;;;1.30;;
31920;SDS011;66485;52.128;4.436;2023-08-12T06:11:00;1.67;;;1.20;;
31920;SDS011;66485;52.128;4.436;2023-08-12T06:13:26;2.72;;;1.33;;
31920;SDS011;66485;52.128;4.436;2023-08-12T06:15:51;3.25;;;1.20;;
31920;SDS011;66485;52.128;4.436;2023-08-12T06:18:16;1.67;;;1.13;;
31920;SDS011;66485;52.128;4.436;2023-08-12T06:20:42;2.40;;;1.20;;
31920;SDS011;66485;52.128;4.436;2023-08-12T06:23:07;2.03;;;1.20;;
31920;SDS011;66485;52.128;4.436;2023-08-12T06:25:32;1.63;;;1.10;;
31920;SDS011;66485;52.128;4.436;2023-08-12T06:27:58;2.67;;;1.20;;
31920;SDS011;66485;52.128;4.436;2023-08-12T06:30:23;1.92;;;1.00;;
31920;SDS011;66485;52.128;4.436;2023-08-12T06:32:49;1.80;;;1.20;;
31920;SDS011;66485;52.128;4.436;2023-08-12T06:35:14;2.67;;;1.40;;
31920;SDS011;66485;52.128;4.436;2023-08-12T06:37:40;3.08;;;1.25;;
31920;SDS011;66485;52.128;4.436;2023-08-12T06:40:06;2.20;;;1.30;;
31920;SDS011;66485;52.128;4.436;2023-08-12T06:42:32;2.28;;;1.02;;
31920;SDS011;66485;52.128;4.436;2023-08-12T06:44:58;3.53;;;1.20;;
31920;SDS011;66485;52.128;4.436;2023-08-12T06:47:24;1.92;;;1.23;;
31920;SDS011;66485;52.128;4.436;2023-08-12T06:49:52;2.30;;;1.08;;
31920;SDS011;66485;52.128;4.436;2023-08-12T06:52:18;2.92;;;1.23;;
31920;SDS011;66485;52.128;4.436;2023-08-12T06:54:44;3.40;;;1.20;;
31920;SDS011;66485;52.128;4.436;2023-08-12T06:57:09;1.63;;;1.20;;
31920;SDS011;66485;52.128;4.436;2023-08-12T06:59:36;1.52;;;1.10;;
31920;SDS011;66485;52.128;4.436;2023-08-12T07:02:02;1.98;;;1.33;;
31920;SDS011;66485;52.128;4.436;2023-08-12T07:04:28;1.80;;;1.30;;
31920;SDS011;66485;52.128;4.436;2023-08-12T07:06:53;1.92;;;1.20;;
31920;SDS011;66485;52.128;4.436;2023-08-12T07:09:18;2.42;;;1.40;;
31920;SDS011;66485;52.128;4.436;2023-08-12T07:11:44;1.73;;;1.05;;
31920;SDS011;66485;52.128;4.436;2023-08-12T07:14:09;1.70;;;1.25;;
31920;SDS011;66485;52.128;4.436;2023-08-12T07:16:35;1.80;;;1.10;;
31920;SDS011;66485;52.128;4.436;2023-08-12T07:19:00;1.90;;;1.33;;
31920;SDS011;66485;52.128;4.436;2023-08-12T07:21:25;1.55;;;1.10;;
31920;SDS011;66485;52.128;4.436;2023-08-12T07:23:51;3.05;;;1.10;;
31920;SDS011;66485;52.128;4.436;2023-08-12T07:26:16;1.67;;;1.00;;
31920;SDS011;66485;52.128;4.436;2023-08-12T07:28:41;1.88;;;1.20;;
31920;SDS011;66485;52.128;4.436;2023-08-12T07:31:07;2.28;;;1.33;;
31920;SDS011;66485;52.128;4.436;2023-08-12T07:33:32;2.33;;;1.30;;
31920;SDS011;66485;52.128;4.436;2023-08-12T07:35:58;3.63;;;1.30;;
31920;SDS011;66485;52.128;4.436;2023-08-12T07:38:23;1.90;;;1.33;;
31920;SDS011;66485;52.128;4.436;2023-08-12T07:40:49;1.58;;;1.13;;
31920;SDS011;66485;52.128;4.436;2023-08-12T07:43:14;1.52;;;1.02;;
31920;SDS011;66485;52.128;4.436;2023-08-12T07:45:40;3.15;;;1.40;;
31920;SDS011;66485;52.128;4.436;2023-08-12T07:48:05;2.75;;;1.27;;
31920;SDS011;66485;52.128;4.436;2023-08-12T07:50:31;2.40;;;1.60;;
31920;SDS011;66485;52.128;4.436;2023-08-12T07:52:56;1.67;;;1.10;;
31920;SDS011;66485;52.128;4.436;2023-08-12T07:55:21;2.38;;;1.33;;
31920;SDS011;66485;52.128;4.436;2023-08-12T07:57:47;1.88;;;1.40;;
31920;SDS011;66485;52.128;4.436;2023-08-12T08:00:12;1.90;;;1.27;;
31920;SDS011;66485;52.128;4.436;2023-08-12T08:02:38;2.60;;;1.30;;
31920;SDS011;66485;52.128;4.436;2023-08-12T08:05:04;2.45;;;1.30;;
31920;SDS011;66485;52.128;4.436;2023-08-12T08:07:30;2.35;;;1.35;;
31920;SDS011;66485;52.128;4.436;2023-08-12T08:09:55;3.03;;;1.35;;
31920;SDS011;66485;52.128;4.436;2023-08-12T08:12:21;2.03;;;1.30;;
31920;SDS011;66485;52.128;4.436;2023-08-12T08:14:46;1.77;;;1.20;;
31920;SDS011;66485;52.128;4.436;2023-08-12T08:17:11;2.70;;;1.42;;
31920;SDS011;66485;52.128;4.436;2023-08-12T08:19:37;2.67;;;1.27;;
31920;SDS011;66485;52.128;4.436;2023-08-12T08:22:02;2.78;;;1.30;;
31920;SDS011;66485;52.128;4.436;2023-08-12T08:24:28;2.17;;;1.20;;
31920;SDS011;66485;52.128;4.436;2023-08-12T08:26:53;2.60;;;1.30;;
31920;SDS011;66485;52.128;4.436;2023-08-12T08:29:19;2.20;;;1.30;;
31920;SDS011;66485;52.128;4.436;2023-08-12T08:31:44;1.70;;;1.20;;
31920;SDS011;66485;52.128;4.436;2023-08-12T08:34:10;3.00;;;1.35;;
31920;SDS011;66485;52.128;4.436;2023-08-12T08:36:35;3.85;;;1.40;;
31920;SDS011;66485;52.128;4.436;2023-08-12T08:39:01;2.08;;;1.23;;
31920;SDS011;66485;52.128;4.436;2023-08-12T08:41:28;1.55;;;1.20;;
31920;SDS011;66485;52.128;4.436;2023-08-12T08:43:55;1.77;;;1.02;;
31920;SDS011;66485;52.128;4.436;2023-08-12T08:46:27;2.17;;;1.23;;
31920;SDS011;66485;52.128;4.436;2023-08-12T08:48:53;2.10;;;1.20;;
31920;SDS011;66485;52.128;4.436;2023-08-12T08:51:19;2.50;;;1.25;;
31920;SDS011;66485;52.128;4.436;2023-08-12T08:53:45;2.00;;;1.30;;
31920;SDS011;66485;52.128;4.436;2023-08-12T08:56:11;1.98;;;1.30;;
31920;SDS011;66485;52.128;4.436;2023-08-12T08:58:39;2.45;;;1.35;;
31920;SDS011;66485;52.128;4.436;2023-08-12T09:01:08;3.20;;;1.40;;
31920;SDS011;66485;52.128;4.436;2023-08-12T09:03:35;3.30;;;1.17;;
31920;SDS011;66485;52.128;4.436;2023-08-12T09:06:03;1.98;;;1.05;;
31920;SDS011;66485;52.128;4.436;2023-08-12T09:08:29;3.35;;;1.30;;
31920;SDS011;66485;52.128;4.436;2023-08-12T09:10:57;2.90;;;1.30;;
31920;SDS011;66485;52.128;4.436;2023-08-12T09:13:25;3.22;;;1.30;;
31920;SDS011;66485;52.128;4.436;2023-08-12T09:15:50;2.75;;;1.30;;
31920;SDS011;66485;52.128;4.436;2023-08-12T09:18:16;2.53;;;1.30;;
31920;SDS011;66485;52.128;4.436;2023-08-12T09:20:42;2.25;;;1.20;;
31920;SDS011;66485;52.128;4.436;2023-08-12T09:23:08;1.60;;;0.90;;
31920;SDS011;66485;52.128;4.436;2023-08-12T09:25:35;2.65;;;1.20;;
31920;SDS011;66485;52.128;4.436;2023-08-12T09:28:10;2.33;;;1.17;;
31920;SDS011;66485;52.128;4.436;2023-08-12T09:30:36;2.55;;;1.25;;
31920;SDS011;66485;52.128;4.436;2023-08-12T09:33:03;2.30;;;1.20;;
31920;SDS011;66485;52.128;4.436;2023-08-12T09:35:38;1.92;;;1.10;;
31920;SDS011;66485;52.128;4.436;2023-08-12T09:38:11;1.50;;;1.02;;
31920;SDS011;66485;52.128;4.436;2023-08-12T09:40:38;3.33;;;1.27;;
31920;SDS011;66485;52.128;4.436;2023-08-12T09:43:04;3.05;;;1.35;;
31920;SDS011;66485;52.128;4.436;2023-08-12T09:45:30;2.60;;;1.25;;
31920;SDS011;66485;52.128;4.436;2023-08-12T09:47:58;3.88;;;1.20;;
31920;SDS011;66485;52.128;4.436;2023-08-12T09:50:25;2.40;;;1.10;;
31920;SDS011;66485;52.128;4.436;2023-08-12T09:52:52;2.70;;;1.23;;
31920;SDS011;66485;52.128;4.436;2023-08-12T09:55:19;2.03;;;1.20;;
31920;SDS011;66485;52.128;4.436;2023-08-12T09:57:48;3.22;;;1.30;;
31920;SDS011;66485;52.128;4.436;2023-08-12T10:00:16;2.30;;;1.10;;
31920;SDS011;66485;52.128;4.436;2023-08-12T10:02:43;2.20;;;1.20;;
31920;SDS011;66485;52.128;4.436;2023-08-12T10:05:11;2.50;;;1.13;;
31920;SDS011;66485;52.128;4.436;2023-08-12T10:07:41;3.30;;;1.20;;
31920;SDS011;66485;52.128;4.436;2023-08-12T10:10:08;3.42;;;1.55;;
31920;SDS011;66485;52.128;4.436;2023-08-12T10:12:34;2.30;;;1.10;;
31920;SDS011;66485;52.128;4.436;2023-08-12T10:15:01;1.45;;;1.10;;
31920;SDS011;66485;52.128;4.436;2023-08-12T10:17:27;4.05;;;1.27;;
31920;SDS011;66485;52.128;4.436;2023-08-12T10:19:56;2.60;;;1.17;;
31920;SDS011;66485;52.128;4.436;2023-08-12T10:22:27;3.25;;;1.17;;
31920;SDS011;66485;52.128;4.436;2023-08-12T10:24:54;3.55;;;1.30;;
31920;SDS011;66485;52.128;4.436;2023-08-12T10:27:19;1.90;;;1.00;;
31920;SDS011;66485;52.128;4.436;2023-08-12T10:29:46;2.30;;;1.10;;
31920;SDS011;66485;52.128;4.436;2023-08-12T10:32:11;2.63;;;1.20;;
31920;SDS011;66485;52.128;4.436;2023-08-12T10:34:38;1.50;;;1.00;;
31920;SDS011;66485;52.128;4.436;2023-08-12T10:37:04;2.05;;;0.90;;
31920;SDS011;66485;52.128;4.436;2023-08-12T10:39:32;1.85;;;1.15;;
31920;SDS011;66485;52.128;4.436;2023-08-12T10:41:59;2.15;;;1.05;;
31920;SDS011;66485;52.128;4.436;2023-08-12T10:49:47;2.13;;;1.27;;
31920;SDS011;66485;52.128;4.436;2023-08-12T10:52:29;2.75;;;1.10;;
31920;SDS011;66485;52.128;4.436;2023-08-12T10:57:51;4.50;;;1.60;;
31920;SDS011;66485;52.128;4.436;2023-08-12T11:00:23;2.65;;;1.10;;
31920;SDS011;66485;52.128;4.436;2023-08-12T11:02:53;2.67;;;1.05;;
31920;SDS011;66485;52.128;4.436;2023-08-12T11:05:20;2.07;;;1.00;;
31920;SDS011;66485;52.128;4.436;2023-08-12T11:07:54;2.15;;;1.02;;
31920;SDS011;66485;52.128;4.436;2023-08-12T11:10:26;2.00;;;1.10;;
31920;SDS011;66485;52.128;4.436;2023-08-12T11:15:34;3.85;;;1.40;;
31920;SDS011;66485;52.128;4.436;2023-08-12T11:18:10;3.78;;;1.40;;
31920;SDS011;66485;52.128;4.436;2023-08-12T11:20:39;3.45;;;1.25;;
31920;SDS011;66485;52.128;4.436;2023-08-12T11:23:05;2.03;;;1.00;;
31920;SDS011;66485;52.128;4.436;2023-08-12T11:25:32;3.50;;;1.52;;
31920;SDS011;66485;52.128;4.436;2023-08-12T11:27:58;2.47;;;1.08;;
31920;SDS011;66485;52.128;4.436;2023-08-12T11:30:24;2.88;;;1.45;;
31920;SDS011;66485;52.128;4.436;2023-08-12T11:32:51;3.47;;;1.20;;
31920;SDS011;66485;52.128;4.436;2023-08-12T11:35:18;4.22;;;1.30;;
31920;SDS011;66485;52.128;4.436;2023-08-12T11:37:45;7.78;;;2.55;;
31920;SDS011;66485;52.128;4.436;2023-08-12T11:40:15;3.80;;;1.40;;
31920;SDS011;66485;52.128;4.436;2023-08-12T11:42:43;4.32;;;1.30;;
31920;SDS011;66485;52.128;4.436;2023-08-12T11:45:09;2.60;;;1.20;;
31920;SDS011;66485;52.128;4.436;2023-08-12T11:47:36;4.22;;;1.30;;
31920;SDS011;66485;52.128;4.436;2023-08-12T11:50:02;2.05;;;0.90;;
31920;SDS011;66485;52.128;4.436;2023-08-12T11:52:29;3.08;;;1.23;;
31920;SDS011;66485;52.128;4.436;2023-08-12T11:54:54;4.13;;;1.23;;
31920;SDS011;66485;52.128;4.436;2023-08-12T11:57:21;4.47;;;1.15;;
31920;SDS011;66485;52.128;4.436;2023-08-12T11:59:47;3.72;;;1.00;;
31920;SDS011;66485;52.128;4.436;2023-08-12T12:02:13;4.28;;;1.20;;
31920;SDS011;66485;52.128;4.436;2023-08-12T12:04:39;7.30;;;1.02;;
31920;SDS011;66485;52.128;4.436;2023-08-12T12:07:16;4.82;;;1.38;;
31920;SDS011;66485;52.128;4.436;2023-08-12T12:09:43;6.47;;;1.52;;
31920;SDS011;66485;52.128;4.436;2023-08-12T12:12:09;2.97;;;1.27;;
31920;SDS011;66485;52.128;4.436;2023-08-12T12:14:35;7.10;;;1.20;;
31920;SDS011;66485;52.128;4.436;2023-08-12T12:17:00;4.70;;;1.60;;
31920;SDS011;66485;52.128;4.436;2023-08-12T12:19:33;8.18;;;1.40;;
31920;SDS011;66485;52.128;4.436;2023-08-12T12:22:01;3.95;;;1.20;;
31920;SDS011;66485;52.128;4.436;2023-08-12T12:24:29;6.82;;;1.42;;
31920;SDS011;66485;52.128;4.436;2023-08-12T12:26:55;5.93;;;1.45;;
31920;SDS011;66485;52.128;4.436;2023-08-12T12:29:21;4.07;;;1.35;;
31920;SDS011;66485;52.128;4.436;2023-08-12T12:31:46;4.68;;;1.33;;
31920;SDS011;66485;52.128;4.436;2023-08-12T12:34:12;4.22;;;1.30;;
31920;SDS011;66485;52.128;4.436;2023-08-12T12:36:39;8.15;;;1.50;;
31920;SDS011;66485;52.128;4.436;2023-08-12T12:39:05;3.70;;;1.60;;
31920;SDS011;66485;52.128;4.436;2023-08-12T12:41:31;7.32;;;1.80;;
31920;SDS011;66485;52.128;4.436;2023-08-12T12:43:56;16.38;;;1.80;;
31920;SDS011;66485;52.128;4.436;2023-08-12T12:46:22;10.50;;;1.77;;
31920;SDS011;66485;52.128;4.436;2023-08-12T12:48:47;7.03;;;1.83;;
31920;SDS011;66485;52.128;4.436;2023-08-12T12:51:13;11.52;;;2.58;;
31920;SDS011;66485;52.128;4.436;2023-08-12T12:53:39;25.20;;;3.20;;
31920;SDS011;66485;52.128;4.436;2023-08-12T12:56:05;29.60;;;2.72;;
31920;SDS011;66485;52.128;4.436;2023-08-12T12:58:31;22.08;;;2.83;;
31920;SDS011;66485;52.128;4.436;2023-08-12T13:00:58;18.00;;;3.03;;
31920;SDS011;66485;52.128;4.436;2023-08-12T13:03:23;11.00;;;2.60;;
31920;SDS011;66485;52.128;4.436;2023-08-12T13:05:49;9.98;;;2.15;;
31920;SDS011;66485;52.128;4.436;2023-08-12T13:08:15;11.13;;;1.73;;
31920;SDS011;66485;52.128;4.436;2023-08-12T13:10:40;6.60;;;1.70;;
31920;SDS011;66485;52.128;4.436;2023-08-12T13:13:06;11.95;;;2.08;;
31920;SDS011;66485;52.128;4.436;2023-08-12T13:15:31;8.88;;;1.70;;
31920;SDS011;66485;52.128;4.436;2023-08-12T13:17:56;5.75;;;1.60;;
31920;SDS011;66485;52.128;4.436;2023-08-12T13:20:22;6.88;;;1.92;;
31920;SDS011;66485;52.128;4.436;2023-08-12T13:22:47;10.43;;;2.47;;
31920;SDS011;66485;52.128;4.436;2023-08-12T13:25:13;9.88;;;1.80;;
31920;SDS011;66485;52.128;4.436;2023-08-12T13:27:38;8.15;;;1.80;;
31920;SDS011;66485;52.128;4.436;2023-08-12T13:30:04;8.52;;;1.88;;
31920;SDS011;66485;52.128;4.436;2023-08-12T13:32:30;17.10;;;2.50;;
31920;SDS011;66485;52.128;4.436;2023-08-12T13:34:55;11.75;;;2.50;;
31920;SDS011;66485;52.128;4.436;2023-08-12T13:37:21;11.23;;;2.20;;
31920;SDS011;66485;52.128;4.436;2023-08-12T13:39:46;14.05;;;1.77;;
31920;SDS011;66485;52.128;4.436;2023-08-12T13:42:11;12.82;;;2.22;;
31920;SDS011;66485;52.128;4.436;2023-08-12T13:44:37;10.52;;;1.95;;
31920;SDS011;66485;52.128;4.436;2023-08-12T13:47:02;12.60;;;2.10;;
31920;SDS011;66485;52.128;4.436;2023-08-12T13:49:27;10.23;;;1.80;;
31920;SDS011;66485;52.128;4.436;2023-08-12T13:51:53;9.63;;;2.15;;
31920;SDS011;66485;52.128;4.436;2023-08-12T13:54:19;14.05;;;2.47;;
31920;SDS011;66485;52.128;4.436;2023-08-12T13:56:44;12.45;;;2.13;;
31920;SDS011;66485;52.128;4.436;2023-08-12T13:59:09;7.97;;;2.08;;
31920;SDS011;66485;52.128;4.436;2023-08-12T14:01:35;10.77;;;2.60;;
31920;SDS011;66485;52.128;4.436;2023-08-12T14:04:01;11.73;;;2.03;;
31920;SDS011;66485;52.128;4.436;2023-08-12T14:06:27;11.10;;;2.10;;
31920;SDS011;66485;52.128;4.436;2023-08-12T14:08:52;9.10;;;2.22;;
31920;SDS011;66485;52.128;4.436;2023-08-12T14:11:18;15.30;;;2.05;;
31920;SDS011;66485;52.128;4.436;2023-08-12T14:13:45;10.65;;;2.08;;
31920;SDS011;66485;52.128;4.436;2023-08-12T14:16:11;6.03;;;1.67;;
31920;SDS011;66485;52.128;4.436;2023-08-12T14:18:36;8.48;;;1.90;;
31920;SDS011;66485;52.128;4.436;2023-08-12T14:21:01;7.43;;;1.93;;
31920;SDS011;66485;52.128;4.436;2023-08-12T14:23:27;9.43;;;2.20;;
31920;SDS011;66485;52.128;4.436;2023-08-12T14:25:52;9.30;;;1.77;;
31920;SDS011;66485;52.128;4.436;2023-08-12T14:28:18;10.70;;;2.40;;
31920;SDS011;66485;52.128;4.436;2023-08-12T14:30:44;8.15;;;1.83;;
31920;SDS011;66485;52.128;4.436;2023-08-12T14:33:09;6.80;;;2.20;;
31920;SDS011;66485;52.128;4.436;2023-08-12T14:35:34;6.95;;;2.00;;
31920;SDS011;66485;52.128;4.436;2023-08-12T14:38:00;9.07;;;2.10;;
31920;SDS011;66485;52.128;4.436;2023-08-12T14:40:26;6.70;;;1.83;;
31920;SDS011;66485;52.128;4.436;2023-08-12T14:42:51;6.80;;;1.55;;
31920;SDS011;66485;52.128;4.436;2023-08-12T14:45:16;6.05;;;1.70;;
31920;SDS011;66485;52.128;4.436;2023-08-12T14:47:42;6.38;;;1.60;;
31920;SDS011;66485;52.128;4.436;2023-08-12T14:50:07;5.93;;;1.80;;
31920;SDS011;66485;52.128;4.436;2023-08-12T14:52:33;5.68;;;1.83;;